createdAt,value
2022-12-08T00:02:35.408Z,93
2022-12-08T00:06:17.641Z,127
2022-12-08T00:09:22.972Z,108
2022-12-08T00:12:28.253Z,95
2022-12-08T00:15:33.578Z,91
2022-12-08T00:18:38.880Z,87
2022-12-08T00:22:21.231Z,106
2022-12-08T00:25:26.555Z,106
2022-12-08T00:28:31.869Z,134
2022-12-08T00:33:28.363Z,86
2022-12-08T00:38:24.853Z,106
2022-12-08T00:41:30.179Z,89
2022-12-08T00:44:35.449Z,97
2022-12-08T00:48:17.851Z,92
2022-12-08T00:51:23.210Z,89
2022-12-08T00:54:28.442Z,86
2022-12-08T00:57:33.760Z,81
2022-12-08T01:00:30.873Z,108
2022-12-08T01:03:36.212Z,89
2022-12-08T01:07:18.555Z,101
2022-12-08T01:10:23.858Z,78
2022-12-08T01:13:29.175Z,77
2022-12-08T01:16:34.534Z,83
2022-12-08T01:20:16.879Z,91
2022-12-08T01:23:22.171Z,89
2022-12-08T01:26:27.483Z,95
2022-12-08T01:29:32.797Z,79
2022-12-08T01:32:38.119Z,105
2022-12-08T01:36:20.444Z,83
2022-12-08T01:39:25.757Z,78
2022-12-08T01:42:31.060Z,61
2022-12-08T01:45:36.421Z,91
2022-12-08T01:49:18.778Z,100
2022-12-08T01:52:24.068Z,63
2022-12-08T01:55:29.409Z,90
2022-12-08T01:58:34.698Z,71
2022-12-08T02:01:31.939Z,88
2022-12-08T02:04:37.138Z,83
2022-12-08T02:08:19.648Z,87
2022-12-08T02:11:24.799Z,86
2022-12-08T02:14:30.108Z,92
2022-12-08T02:17:35.430Z,78
2022-12-08T02:21:17.785Z,67
2022-12-08T02:24:23.111Z,62
2022-12-08T02:26:51.333Z,93
2022-12-08T02:29:19.598Z,60
2022-12-08T02:32:24.875Z,64
2022-12-08T02:35:30.214Z,70
2022-12-08T02:38:35.558Z,93
2022-12-08T02:42:17.867Z,114
2022-12-08T02:45:23.212Z,69
2022-12-08T02:48:28.538Z,75
2022-12-08T02:51:33.823Z,76
2022-12-08T02:54:39.167Z,84
2022-12-08T02:58:21.514Z,73
2022-12-08T03:01:26.859Z,73
2022-12-08T03:04:32.122Z,54
2022-12-08T03:07:37.465Z,84
2022-12-08T03:11:11.624Z,90
2022-12-08T03:14:16.950Z,54
2022-12-08T03:17:22.237Z,67
2022-12-08T03:20:27.532Z,71
2022-12-08T03:23:32.846Z,69
2022-12-08T03:26:38.165Z,60
2022-12-08T03:30:20.529Z,63
2022-12-08T03:33:25.825Z,59
2022-12-08T03:36:31.151Z,66
2022-12-08T03:39:36.476Z,56
2022-12-08T03:43:18.837Z,68
2022-12-08T03:49:29.471Z,68
2022-12-08T03:52:34.772Z,82
2022-12-08T03:56:18.185Z,67
2022-12-08T03:59:22.444Z,48
2022-12-08T04:02:27.803Z,91
2022-12-08T04:05:33.069Z,49
2022-12-08T04:08:38.382Z,63
2022-12-08T04:13:30.782Z,54
2022-12-08T04:16:36.174Z,46
2022-12-08T04:20:18.425Z,47
2022-12-08T04:23:23.753Z,56
2022-12-08T04:26:29.081Z,69
2022-12-08T04:29:34.418Z,65
2022-12-08T04:32:42.906Z,56
2022-12-08T04:36:22.044Z,73
2022-12-08T04:39:27.352Z,85
2022-12-08T04:42:32.643Z,76
2022-12-08T04:45:37.998Z,65
2022-12-08T04:49:20.347Z,84
2022-12-08T04:52:25.655Z,64
2022-12-08T04:55:30.946Z,49
2022-12-08T04:58:36.241Z,76
2022-12-08T05:03:33.079Z,54
2022-12-08T05:06:38.099Z,69
2022-12-08T05:10:20.452Z,81
2022-12-08T05:13:17.565Z,70
2022-12-08T05:16:22.920Z,73
2022-12-08T05:19:28.209Z,55
2022-12-08T05:22:33.532Z,91
2022-12-08T05:25:38.801Z,61
2022-12-08T05:29:21.209Z,64
2022-12-08T05:32:26.529Z,53
2022-12-08T05:35:31.801Z,86
2022-12-08T05:38:37.125Z,87
2022-12-08T05:42:24.527Z,81
2022-12-08T05:45:24.835Z,104
2022-12-08T05:48:30.136Z,71
2022-12-08T05:51:35.392Z,102
2022-12-08T05:55:17.770Z,90
2022-12-08T05:58:23.268Z,81
2022-12-08T06:01:28.411Z,74
2022-12-08T06:04:33.740Z,166
2022-12-08T06:07:39.097Z,122
2022-12-08T06:11:21.401Z,82
2022-12-08T06:14:18.490Z,88
2022-12-08T06:17:23.784Z,82
2022-12-08T06:20:29.088Z,70
2022-12-08T06:23:34.464Z,80
2022-12-08T06:27:16.781Z,94
2022-12-08T06:30:22.084Z,83
2022-12-08T06:33:27.436Z,89
2022-12-08T06:36:32.715Z,104
2022-12-08T06:39:38.031Z,112
2022-12-08T06:43:20.365Z,118
2022-12-08T06:46:25.835Z,71
2022-12-08T06:49:30.994Z,86
2022-12-08T06:52:40.969Z,113
2022-12-08T06:57:32.948Z,101
2022-12-08T07:00:38.161Z,91
2022-12-08T07:04:20.510Z,86
2022-12-08T07:07:25.802Z,100
2022-12-08T07:10:31.133Z,68
2022-12-08T07:12:59.362Z,95
2022-12-08T07:15:19.400Z,81
2022-12-08T07:18:24.703Z,116
2022-12-08T07:21:30.059Z,109
2022-12-08T07:24:35.362Z,120
2022-12-08T07:28:17.693Z,105
2022-12-08T07:31:23.056Z,90
2022-12-08T07:34:28.348Z,88
2022-12-08T07:37:33.664Z,104
2022-12-08T07:41:16.006Z,91
2022-12-08T07:44:21.308Z,137
2022-12-08T07:47:26.660Z,110
2022-12-08T07:50:31.985Z,109
2022-12-08T07:53:37.250Z,103
2022-12-08T07:57:19.603Z,110
2022-12-08T08:00:24.994Z,115
2022-12-08T08:03:30.217Z,122
2022-12-08T08:06:35.554Z,98
2022-12-08T08:10:17.924Z,128
2022-12-08T08:13:23.245Z,104
2022-12-08T08:16:20.405Z,107
2022-12-08T08:19:25.690Z,143
2022-12-08T08:22:30.971Z,180
2022-12-08T08:27:27.463Z,161
2022-12-08T08:30:32.790Z,142
2022-12-08T08:33:38.073Z,150
2022-12-08T08:37:20.498Z,120
2022-12-08T08:40:25.748Z,142
2022-12-08T08:43:36.199Z,133
2022-12-08T08:46:36.419Z,128
2022-12-08T08:50:18.729Z,125
2022-12-08T08:53:24.041Z,146
2022-12-08T08:56:29.347Z,153
2022-12-08T08:59:34.698Z,203
2022-12-08T09:03:17.040Z,146
2022-12-08T09:06:22.428Z,187
2022-12-08T09:09:27.692Z,177
2022-12-08T09:12:32.975Z,126
2022-12-08T09:15:30.100Z,127
2022-12-08T09:18:35.381Z,142
2022-12-08T09:22:17.755Z,156
2022-12-08T09:25:23.107Z,192
2022-12-08T09:28:28.408Z,148
2022-12-08T09:31:33.746Z,144
2022-12-08T09:34:38.984Z,139
2022-12-08T09:38:21.346Z,158
2022-12-08T09:41:30.784Z,155
2022-12-08T09:44:31.990Z,144
2022-12-08T09:47:37.318Z,119
2022-12-08T09:51:19.661Z,129
2022-12-08T09:54:24.963Z,111
2022-12-08T09:57:30.270Z,156
2022-12-08T10:00:35.603Z,120
2022-12-08T10:04:17.980Z,120
2022-12-08T10:07:23.264Z,113
2022-12-08T10:10:28.575Z,149
2022-12-08T10:15:16.981Z,122
2022-12-08T10:18:22.207Z,130
2022-12-08T10:21:27.527Z,103
2022-12-08T10:24:32.804Z,104
2022-12-08T10:27:38.144Z,104
2022-12-08T10:31:20.594Z,101
2022-12-08T10:34:25.830Z,99
2022-12-08T10:37:31.091Z,100
2022-12-08T10:40:40.681Z,126
2022-12-08T10:44:18.804Z,129
2022-12-08T10:47:24.107Z,93
2022-12-08T10:50:29.413Z,120
2022-12-08T10:53:34.748Z,93
2022-12-08T10:57:17.107Z,79
2022-12-08T11:00:22.426Z,79
2022-12-08T11:03:27.720Z,102
2022-12-08T11:06:33.036Z,77
2022-12-08T11:09:38.311Z,87
2022-12-08T11:13:20.699Z,69
2022-12-08T11:16:17.860Z,67
2022-12-08T11:19:23.100Z,62
2022-12-08T11:22:28.408Z,63
2022-12-08T11:25:33.754Z,72
2022-12-08T11:28:39.045Z,46
2022-12-08T11:32:21.481Z,53
2022-12-08T11:35:26.784Z,66
2022-12-08T11:38:32.057Z,81
2022-12-08T11:41:37.422Z,73
2022-12-08T11:45:19.731Z,67
2022-12-08T11:48:25.040Z,64
2022-12-08T11:51:30.352Z,79
2022-12-08T11:54:35.638Z,68
2022-12-08T11:58:18.071Z,63
2022-12-08T12:01:23.375Z,64
2022-12-08T12:04:28.651Z,69
2022-12-08T12:07:34.035Z,54
2022-12-08T12:10:39.274Z,79
2022-12-08T12:14:21.612Z,80
2022-12-08T12:17:18.769Z,84
2022-12-08T12:20:24.029Z,95
2022-12-08T12:23:29.375Z,64
2022-12-08T12:26:34.698Z,74
2022-12-08T12:29:39.948Z,63
2022-12-08T12:33:22.375Z,66
2022-12-08T12:36:27.669Z,50
2022-12-08T12:39:32.961Z,73
2022-12-08T12:42:38.307Z,50
2022-12-08T12:46:20.724Z,50
2022-12-08T12:49:25.999Z,62
2022-12-08T12:52:31.267Z,62
2022-12-08T12:55:36.589Z,62
2022-12-08T12:59:18.968Z,60
2022-12-08T13:02:24.324Z,59
2022-12-08T13:05:29.589Z,69
2022-12-08T13:08:34.905Z,72
2022-12-08T13:12:17.217Z,57
2022-12-08T13:15:14.329Z,75
2022-12-08T13:18:19.712Z,62
2022-12-08T13:21:24.996Z,71
2022-12-08T13:24:30.307Z,69
2022-12-08T13:27:35.614Z,79
2022-12-08T13:31:18.000Z,59
2022-12-08T13:34:23.278Z,82
2022-12-08T13:37:28.591Z,75
2022-12-08T13:40:33.952Z,94
2022-12-08T13:43:51.260Z,96
2022-12-08T13:47:33.219Z,76
2022-12-08T13:54:33.418Z,115
2022-12-08T13:57:01.476Z,80
2022-12-08T14:00:19.961Z,38
2022-12-08T14:03:25.228Z,72
2022-12-08T14:06:30.478Z,83
2022-12-08T14:09:35.835Z,58
2022-12-08T14:13:18.189Z,54
2022-12-08T14:17:29.408Z,70
2022-12-08T14:20:46.786Z,48
2022-12-08T14:23:40.041Z,51
2022-12-08T14:27:22.398Z,88
2022-12-08T14:30:27.735Z,79
2022-12-08T14:33:33.023Z,83
2022-12-08T14:36:38.339Z,63
2022-12-08T14:40:22.817Z,77
2022-12-08T14:43:26.018Z,71
2022-12-08T14:46:31.447Z,65
2022-12-08T14:49:36.646Z,76
2022-12-08T14:53:18.987Z,74
2022-12-08T14:56:24.334Z,79
2022-12-08T14:59:29.631Z,94
2022-12-08T15:02:34.940Z,71
2022-12-08T15:06:17.300Z,62
2022-12-08T15:10:36.764Z,91
2022-12-08T15:14:19.111Z,97
2022-12-08T15:18:30.365Z,76
2022-12-08T15:21:35.700Z,84
2022-12-08T15:25:18.039Z,107
2022-12-08T15:28:28.068Z,80
2022-12-08T15:31:28.726Z,72
2022-12-08T15:34:33.945Z,91
2022-12-08T15:38:16.301Z,118
2022-12-08T15:41:21.643Z,116
2022-12-08T15:44:26.964Z,135
2022-12-08T15:47:32.254Z,103
2022-12-08T15:50:37.567Z,131
2022-12-08T15:54:19.933Z,101
2022-12-08T15:57:44.026Z,106
2022-12-08T16:00:52.144Z,144
2022-12-08T16:04:20.190Z,100
2022-12-08T16:07:22.245Z,104
2022-12-08T16:10:23.689Z,132
2022-12-08T16:13:55.921Z,132
2022-12-08T16:18:17.156Z,124
2022-12-08T16:21:52.000Z,139
2022-12-08T16:24:27.795Z,126
2022-12-08T16:27:59.855Z,160
2022-12-08T16:30:38.426Z,124
2022-12-08T16:34:20.746Z,180
2022-12-08T16:37:26.105Z,166
2022-12-08T16:40:31.470Z,141
2022-12-08T16:43:36.728Z,144
2022-12-08T16:47:19.100Z,126
2022-12-08T16:50:24.401Z,142
2022-12-08T16:53:29.704Z,142
2022-12-08T16:56:35.028Z,139
2022-12-08T17:00:17.461Z,118
2022-12-08T17:03:22.679Z,154
2022-12-08T17:06:27.996Z,162
2022-12-08T17:09:33.293Z,161
2022-12-08T17:12:38.605Z,139
2022-12-08T17:16:21.004Z,146
2022-12-08T17:19:18.075Z,142
2022-12-08T17:22:23.411Z,126
2022-12-08T17:25:28.733Z,131
2022-12-08T17:28:58.712Z,129
2022-12-08T17:31:39.405Z,107
2022-12-08T17:35:21.693Z,138
2022-12-08T17:38:26.994Z,140
2022-12-08T17:41:33.378Z,113
2022-12-08T17:44:37.645Z,102
2022-12-08T17:48:20.006Z,115
2022-12-08T17:51:25.340Z,116
2022-12-08T17:54:30.621Z,131
2022-12-08T17:57:35.903Z,154
2022-12-08T18:02:32.547Z,130
2022-12-08T18:05:37.776Z,135
2022-12-08T18:09:20.203Z,133
2022-12-08T18:12:25.411Z,141
2022-12-08T18:15:33.581Z,147
2022-12-08T18:18:27.867Z,215
2022-12-08T18:21:33.169Z,149
2022-12-08T18:24:38.469Z,149
2022-12-08T18:28:20.816Z,186
2022-12-08T18:31:26.216Z,167
2022-12-08T18:34:31.444Z,138
2022-12-08T18:37:36.771Z,156
2022-12-08T18:41:19.106Z,156
2022-12-08T18:44:24.449Z,127
2022-12-08T18:47:29.745Z,145
2022-12-08T18:50:35.070Z,114
2022-12-08T18:54:17.407Z,103
2022-12-08T18:57:22.723Z,128
2022-12-08T19:00:28.156Z,109
2022-12-08T19:03:33.372Z,142
2022-12-08T19:06:38.654Z,139
2022-12-08T19:10:21.026Z,119
2022-12-08T19:13:26.360Z,140
2022-12-08T19:16:31.719Z,143
2022-12-08T19:19:28.775Z,130
2022-12-08T19:22:34.077Z,97
2022-12-08T19:25:39.404Z,106
2022-12-08T19:29:21.774Z,102
2022-12-08T19:32:27.050Z,97
2022-12-08T19:35:32.421Z,81
2022-12-08T19:38:37.700Z,94
2022-12-08T19:42:20.054Z,99
2022-12-08T19:45:25.462Z,100
2022-12-08T19:48:30.687Z,93
2022-12-08T19:51:35.998Z,104
2022-12-08T19:55:18.349Z,100
2022-12-08T19:58:23.682Z,120
2022-12-08T20:01:29.050Z,103
2022-12-08T20:04:34.310Z,96
2022-12-08T20:07:39.653Z,88
2022-12-08T20:11:21.954Z,78
2022-12-08T20:14:27.283Z,77
2022-12-08T20:17:32.590Z,125
2022-12-08T20:20:29.739Z,127
2022-12-08T20:23:34.994Z,128
2022-12-08T20:27:17.398Z,111
2022-12-08T20:30:22.743Z,104
2022-12-08T20:33:28.046Z,96
2022-12-08T20:36:33.333Z,94
2022-12-08T20:39:38.653Z,94
2022-12-08T20:43:20.976Z,93
2022-12-08T20:46:26.357Z,90
2022-12-08T20:49:34.669Z,100
2022-12-08T20:52:36.940Z,96
2022-12-08T20:56:19.422Z,78
2022-12-08T20:59:24.684Z,105
2022-12-08T21:02:30.206Z,89
2022-12-08T21:05:35.374Z,102
2022-12-08T21:09:17.693Z,97
2022-12-08T21:12:23.096Z,101
2022-12-08T21:15:28.262Z,113
2022-12-08T21:20:16.632Z,119
2022-12-08T21:23:22.025Z,148
2022-12-08T21:26:27.396Z,151
2022-12-08T21:29:32.473Z,182
2022-12-08T21:34:29.018Z,164
2022-12-08T21:37:34.409Z,164
2022-12-08T21:40:39.638Z,174
2022-12-08T21:44:21.932Z,223
2022-12-08T21:47:27.508Z,150
2022-12-08T21:50:32.729Z,180
2022-12-08T21:53:38.020Z,169
2022-12-08T21:57:20.297Z,172
2022-12-08T22:00:25.664Z,166
2022-12-08T22:03:31.162Z,142
2022-12-08T22:06:36.296Z,147
2022-12-08T22:10:18.743Z,172
2022-12-08T22:13:23.944Z,177
2022-12-08T22:16:29.434Z,171
2022-12-08T22:19:26.461Z,170
2022-12-08T22:22:31.747Z,175
2022-12-08T22:25:36.896Z,157
2022-12-08T22:29:19.504Z,169
2022-12-08T22:32:24.594Z,179
2022-12-08T22:35:29.866Z,183
2022-12-08T22:38:35.175Z,196
2022-12-08T22:42:17.636Z,163
2022-12-08T22:45:22.918Z,177
2022-12-08T22:48:28.150Z,163
2022-12-08T22:51:33.692Z,156
2022-12-08T22:54:38.752Z,152
2022-12-08T22:58:21.278Z,194
2022-12-08T23:01:26.630Z,182
2022-12-08T23:04:32.047Z,161
2022-12-08T23:07:37.120Z,174
2022-12-08T23:11:19.523Z,171
2022-12-08T23:14:24.810Z,161
2022-12-08T23:17:30.173Z,188
2022-12-08T23:20:35.636Z,163
2022-12-08T23:24:17.972Z,174
2022-12-08T23:27:23.325Z,155
2022-12-08T23:29:51.342Z,194
2022-12-08T23:34:39.909Z,159
2022-12-08T23:38:22.010Z,146
2022-12-08T23:41:27.283Z,156
2022-12-08T23:44:32.600Z,174
2022-12-08T23:47:37.945Z,193
2022-12-08T23:50:06.484Z,136
2022-12-08T23:52:34.542Z,124
2022-12-08T23:56:16.845Z,130
2022-12-08T23:59:22.123Z,197
